createdAt,value
2018-07-03T00:01:38.430Z,19.20
2018-07-03T00:04:15.668Z,19.10
2018-07-03T00:07:17.591Z,19.00
2018-07-03T00:09:48.378Z,19.00
2018-07-03T00:12:19.272Z,18.90
2018-07-03T00:18:03.434Z,18.80
2018-07-03T00:20:33.872Z,18.80
2018-07-03T00:23:13.208Z,18.70
2018-07-03T00:25:47.156Z,18.70
2018-07-03T00:28:17.569Z,18.60
2018-07-03T00:30:47.936Z,18.60
2018-07-03T00:33:36.323Z,18.60
2018-07-03T00:36:06.631Z,18.50
2018-07-03T00:38:37.181Z,18.50
2018-07-03T00:41:07.795Z,18.40
2018-07-03T00:43:38.146Z,18.40
2018-07-03T00:46:08.393Z,18.30
2018-07-03T00:48:43.416Z,18.30
2018-07-03T00:51:17.481Z,18.30
2018-07-03T00:53:50.879Z,18.30
2018-07-03T00:56:21.051Z,18.20
2018-07-03T00:59:12.105Z,18.20
2018-07-03T01:01:42.740Z,18.20
2018-07-03T01:04:13.018Z,18.10
2018-07-03T01:06:43.690Z,18.00
2018-07-03T01:09:14.401Z,18.00
2018-07-03T01:11:52.081Z,18.00
2018-07-03T01:14:43.329Z,18.00
2018-07-03T01:17:13.557Z,17.90
2018-07-03T01:19:44.407Z,17.90
2018-07-03T01:22:39.861Z,17.90
2018-07-03T01:25:10.587Z,17.80
2018-07-03T01:27:41.988Z,17.80
2018-07-03T01:30:13.339Z,17.80
2018-07-03T01:32:43.758Z,17.80
2018-07-03T01:35:18.809Z,17.70
2018-07-03T01:37:57.318Z,17.70
2018-07-03T01:40:42.968Z,17.70
2018-07-03T01:45:58.803Z,17.60
2018-07-03T01:48:28.991Z,17.60
2018-07-03T01:50:59.095Z,17.60
2018-07-03T01:53:29.740Z,17.60
2018-07-03T01:55:59.888Z,17.60
2018-07-03T01:58:43.635Z,17.50
2018-07-03T02:03:59.742Z,17.50
2018-07-03T02:06:29.920Z,17.50
2018-07-03T02:09:00.633Z,17.50
2018-07-03T02:11:30.865Z,17.50
2018-07-03T02:14:15.892Z,17.50
2018-07-03T02:16:46.497Z,17.50
2018-07-03T02:19:16.935Z,17.50
2018-07-03T02:21:47.199Z,17.50
2018-07-03T02:24:35.348Z,17.50
2018-07-03T02:27:14.254Z,17.40
2018-07-03T02:29:45.042Z,17.40
2018-07-03T02:32:15.518Z,17.50
2018-07-03T02:34:45.794Z,17.40
2018-07-03T02:37:22.327Z,17.40
2018-07-03T02:39:52.935Z,17.40
2018-07-03T02:42:23.154Z,17.40
2018-07-03T02:44:55.851Z,17.40
2018-07-03T02:47:26.528Z,17.40
2018-07-03T02:49:56.920Z,17.40
2018-07-03T02:52:27.207Z,17.40
2018-07-03T02:54:57.277Z,17.40
2018-07-03T02:57:27.453Z,17.30
2018-07-03T02:59:57.876Z,17.30
2018-07-03T03:02:28.054Z,17.30
2018-07-03T03:04:58.171Z,17.30
2018-07-03T03:07:28.753Z,17.30
2018-07-03T03:09:58.921Z,17.30
2018-07-03T03:12:29.049Z,17.20
2018-07-03T03:15:14.512Z,17.20
2018-07-03T03:17:45.868Z,17.20
2018-07-03T03:20:44.816Z,17.20
2018-07-03T03:23:16.104Z,17.20
2018-07-03T03:29:21.627Z,17.10
2018-07-03T03:31:51.997Z,17.10
2018-07-03T03:34:22.126Z,17.10
2018-07-03T03:36:52.609Z,17.10
2018-07-03T03:39:22.819Z,17.00
2018-07-03T03:41:53.116Z,17.00
2018-07-03T03:44:23.569Z,17.00
2018-07-03T03:47:13.693Z,17.00
2018-07-03T03:50:07.060Z,17.00
2018-07-03T03:52:37.392Z,17.00
2018-07-03T03:55:16.184Z,17.00
2018-07-03T03:57:46.368Z,17.00
2018-07-03T04:00:16.726Z,17.00
2018-07-03T04:02:47.323Z,17.00
2018-07-03T04:08:04.234Z,17.00
2018-07-03T04:10:34.784Z,17.00
2018-07-03T04:13:11.254Z,17.00
2018-07-03T04:15:41.516Z,17.00
2018-07-03T04:18:11.707Z,16.90
2018-07-03T04:20:42.140Z,17.00
2018-07-03T04:25:55.166Z,16.90
2018-07-03T04:28:25.616Z,17.00
2018-07-03T04:30:55.873Z,17.00
2018-07-03T04:33:26.356Z,17.00
2018-07-03T04:35:56.607Z,17.00
2018-07-03T04:41:36.717Z,17.00
2018-07-03T04:44:06.845Z,17.10
2018-07-03T04:46:44.228Z,17.10
2018-07-03T04:49:32.633Z,17.20
2018-07-03T04:52:22.087Z,17.20
2018-07-03T04:55:10.370Z,17.20
2018-07-03T04:57:40.623Z,17.30
2018-07-03T05:00:10.861Z,17.40
2018-07-03T05:02:41.051Z,17.40
2018-07-03T05:05:11.308Z,17.40
2018-07-03T05:07:41.501Z,17.50
2018-07-03T05:19:31.492Z,17.80
2018-07-03T05:22:24.775Z,17.90
2018-07-03T05:24:55.259Z,17.90
2018-07-03T05:27:25.855Z,18.00
2018-07-03T05:29:56.527Z,18.10
2018-07-03T05:32:54.281Z,18.20
2018-07-03T05:46:11.756Z,18.50
2018-07-03T05:48:53.412Z,18.60
2018-07-03T05:51:23.744Z,18.70
2018-07-03T05:53:54.036Z,18.80
2018-07-03T05:56:28.436Z,18.90
2018-07-03T05:58:58.886Z,19.00
2018-07-03T06:01:29.524Z,19.10
2018-07-03T06:03:59.816Z,19.20
2018-07-03T06:06:30.058Z,19.20
2018-07-03T06:09:00.285Z,19.40
2018-07-03T06:11:30.607Z,19.50
2018-07-03T06:14:00.973Z,19.60
2018-07-03T06:16:31.312Z,19.70
2018-07-03T06:19:01.928Z,19.80
2018-07-03T06:21:32.593Z,19.80
2018-07-03T06:24:03.005Z,20.00
2018-07-03T06:26:36.457Z,20.10
2018-07-03T06:29:08.331Z,20.20
2018-07-03T06:31:39.471Z,20.30
2018-07-03T06:34:11.182Z,20.40
2018-07-03T06:36:41.483Z,20.50
2018-07-03T06:39:29.608Z,20.70
2018-07-03T06:42:07.388Z,20.70
2018-07-03T06:44:44.333Z,20.90
2018-07-03T06:47:15.398Z,21.00
2018-07-03T06:58:41.346Z,21.50
2018-07-03T07:07:36.519Z,21.80
2018-07-03T07:10:08.690Z,22.00
2018-07-03T07:12:41.796Z,22.10
2018-07-03T07:15:23.753Z,22.20
2018-07-03T07:17:54.339Z,22.30
2018-07-03T07:20:24.814Z,22.40
2018-07-03T07:22:55.060Z,22.50
2018-07-03T07:25:25.425Z,22.60
2018-07-03T07:27:55.705Z,22.80
2018-07-03T07:30:26.009Z,22.90
2018-07-03T07:32:56.358Z,23.00
2018-07-03T07:35:26.882Z,23.10
2018-07-03T07:37:57.963Z,23.20
2018-07-03T07:40:34.190Z,23.30
2018-07-03T07:53:00.108Z,23.80
2018-07-03T07:55:37.569Z,23.90
2018-07-03T07:58:07.859Z,24.00
2018-07-03T08:00:38.903Z,24.10
2018-07-03T08:03:09.175Z,24.20
2018-07-03T08:05:40.472Z,24.30
2018-07-03T08:08:10.780Z,24.40
2018-07-03T08:10:41.032Z,24.50
2018-07-03T08:13:11.376Z,24.60
2018-07-03T08:15:53.171Z,24.70
2018-07-03T08:18:30.244Z,24.80
2018-07-03T08:30:24.481Z,25.30
2018-07-03T08:39:40.458Z,25.60
2018-07-03T08:42:11.658Z,25.70
2018-07-03T08:44:48.865Z,25.90
2018-07-03T08:47:47.311Z,25.90
2018-07-03T08:50:47.976Z,26.00
2018-07-03T08:56:47.916Z,26.20
2018-07-03T08:59:24.324Z,26.30
2018-07-03T09:08:41.761Z,26.60
2018-07-03T09:18:20.288Z,26.80
2018-07-03T09:33:25.418Z,27.10
2018-07-03T09:35:58.881Z,27.20
2018-07-03T09:38:55.834Z,27.60
2018-07-03T09:46:56.846Z,27.60
2018-07-03T09:49:28.227Z,27.70
2018-07-03T09:58:03.799Z,28.10
2018-07-03T10:00:51.693Z,28.20
2018-07-03T10:12:54.167Z,28.60
2018-07-03T10:31:53.913Z,29.10
2018-07-03T10:34:24.189Z,29.20
2018-07-03T10:56:00.017Z,29.70
2018-07-03T11:01:34.575Z,29.80
2018-07-03T11:04:24.041Z,29.80
2018-07-03T11:06:54.397Z,29.90
2018-07-03T11:09:24.737Z,30.00
2018-07-03T11:11:56.021Z,29.90
2018-07-03T11:14:28.541Z,30.00
2018-07-03T11:16:58.899Z,30.10
2018-07-03T11:19:42.492Z,30.10
2018-07-03T11:22:13.317Z,30.20
2018-07-03T11:24:43.670Z,30.30
2018-07-03T12:11:07.944Z,28.80
2018-07-03T12:13:38.188Z,28.80
2018-07-03T12:16:08.423Z,29.00
